Terminal Aerodrome Forecast
Issued by NWS

Home | Current Version | Previous Version | Text Only | Print | Product List | Glossary On
Versions: 1 2 3 4 5 6 7 8 9 10 11 12 13 14 15
000
FTUS43 KDLH 171139
TAFHYR
TAF
KHYR 171139Z 1712/1812 03004KT P6SM VCSH BKN110
     FM171500 VRB03KT P6SM SCT024 BKN090
     FM180000 VRB02KT 6SM BR SCT015
     FM180800 20005KT P6SM SKC=

USA.gov is the U.S. government's official web portal to all federal, state and local government web resources and services.